Terminal Aerodrome Forecast
Issued by NWS

Home | Current Version | Previous Version | Text Only | Print | Product List | Glossary On
Versions: 1 2 3 4 5 6 7 8 9 10 11 12 13 14 15 16 17 18 19 20 21 22
000
FTUS43 KAPX 211000 AAA
TAFAPN
TAF AMD
KAPN 211000Z 2110/2206 27004KT P6SM OVC005
     FM211500 11005KT P6SM OVC011
     FM211700 11006KT P6SM BKN025
     FM220200 00000KT 4SM BR BKN015=

USA.gov is the U.S. government's official web portal to all federal, state and local government web resources and services.